Time;durP1;ratioP1;P1;durP2;ratioP2;P2;SDS_P1;SDS_P2;PMS_P1;PMS_P2;Temp;Humidity;BMP_temperature;BMP_pressure;BME280_temperature;BME280_humidity;BME280_pressure;Samples;Min_cycle;Max_cycle;Signal;HPM_P1;HPM_P2
2023/10/03 00:00:32;;;;;;;22.33;10.68;;;;;;;;;;7391473;19;20002;-67
2023/10/03 00:02:59;;;;;;;22.58;10.35;;;;;;;;;;7367201;19;20007;-68
2023/10/03 00:05:28;;;;;;;26.15;10.23;;;;;;;;;;7370185;19;20522;-68
2023/10/03 00:07:54;;;;;;;22.48;10.65;;;;;;;;;;7370437;19;20814;-68
2023/10/03 00:10:20;;;;;;;25.02;10.88;;;;;;;;;;7370432;19;20370;-67
2023/10/03 00:12:48;;;;;;;26.20;11.50;;;;;;;;;;7367305;19;20027;-68
2023/10/03 00:15:16;;;;;;;28.80;12.25;;;;;;;;;;7391644;19;20036;-66
2023/10/03 00:17:41;;;;;;;23.83;10.93;;;;;;;;;;7368514;19;20074;-67
2023/10/03 00:20:12;;;;;;;22.60;10.93;;;;;;;;;;7367558;19;20016;-66
2023/10/03 00:22:38;;;;;;;21.15;10.57;;;;;;;;;;7369180;19;20011;-66
2023/10/03 00:25:05;;;;;;;23.40;11.05;;;;;;;;;;7379299;19;20011;-66
2023/10/03 00:27:35;;;;;;;22.30;10.27;;;;;;;;;;7400853;19;19998;-68
2023/10/03 00:30:00;;;;;;;27.35;11.63;;;;;;;;;;7363779;19;20066;-66
2023/10/03 00:32:26;;;;;;;24.13;11.23;;;;;;;;;;7363649;19;20027;-67
2023/10/03 00:34:51;;;;;;;23.13;10.50;;;;;;;;;;7368991;19;20013;-67
2023/10/03 00:37:16;;;;;;;24.92;10.90;;;;;;;;;;7367076;19;20074;-67
2023/10/03 00:39:43;;;;;;;24.08;10.45;;;;;;;;;;7368885;19;20019;-68
2023/10/03 00:42:09;;;;;;;25.48;11.40;;;;;;;;;;7388666;19;20027;-68
2023/10/03 00:44:34;;;;;;;22.73;10.73;;;;;;;;;;7365807;19;20074;-68
2023/10/03 00:47:00;;;;;;;23.90;10.60;;;;;;;;;;7368376;19;20011;-67
2023/10/03 00:49:28;;;;;;;24.55;11.23;;;;;;;;;;7369078;19;20016;-67
2023/10/03 00:51:56;;;;;;;24.80;11.98;;;;;;;;;;7367705;19;19996;-66
2023/10/03 00:54:21;;;;;;;25.98;11.38;;;;;;;;;;7388970;19;20023;-67
2023/10/03 00:56:47;;;;;;;23.85;10.82;;;;;;;;;;7366482;19;20010;-67
2023/10/03 00:59:13;;;;;;;30.48;11.07;;;;;;;;;;7367385;19;20035;-67
2023/10/03 01:01:40;;;;;;;24.38;10.95;;;;;;;;;;7366721;19;20014;-67
2023/10/03 01:04:10;;;;;;;26.98;12.38;;;;;;;;;;7367535;19;20109;-67
2023/10/03 01:06:35;;;;;;;23.33;11.43;;;;;;;;;;7368153;19;20035;-68
2023/10/03 01:09:00;;;;;;;27.90;10.77;;;;;;;;;;7388640;19;19998;-67
2023/10/03 01:11:27;;;;;;;27.33;12.68;;;;;;;;;;7366669;19;20021;-67
2023/10/03 01:13:59;;;;;;;26.23;11.45;;;;;;;;;;7364932;19;20017;-67
2023/10/03 01:18:53;;;;;;;28.02;11.73;;;;;;;;;;7368165;19;20425;-67
2023/10/03 01:21:21;;;;;;;27.75;11.55;;;;;;;;;;7388925;19;20003;-67
2023/10/03 01:23:47;;;;;;;25.38;12.30;;;;;;;;;;7365234;19;20022;-68
2023/10/03 01:26:14;;;;;;;28.05;12.55;;;;;;;;;;7367069;19;20477;-66
2023/10/03 01:28:40;;;;;;;32.55;12.13;;;;;;;;;;7366502;19;20014;-67
2023/10/03 01:31:06;;;;;;;23.88;12.38;;;;;;;;;;7368767;19;20018;-68
2023/10/03 01:33:32;;;;;;;26.17;12.27;;;;;;;;;;7388636;19;20022;-66
2023/10/03 01:35:59;;;;;;;25.55;12.80;;;;;;;;;;7368822;19;20006;-67
2023/10/03 01:38:26;;;;;;;24.90;12.43;;;;;;;;;;7366501;19;20018;-68
2023/10/03 01:40:53;;;;;;;29.38;12.80;;;;;;;;;;7366962;19;20006;-67
2023/10/03 01:43:19;;;;;;;29.20;11.77;;;;;;;;;;7362381;19;20002;-67
2023/10/03 01:45:44;;;;;;;22.20;11.85;;;;;;;;;;7362286;19;20029;-68
2023/10/03 01:48:12;;;;;;;33.60;12.38;;;;;;;;;;7385380;19;20002;-66
2023/10/03 01:50:38;;;;;;;26.65;13.00;;;;;;;;;;7364692;19;20003;-67
2023/10/03 01:53:04;;;;;;;24.13;11.60;;;;;;;;;;7362395;19;20010;-67
2023/10/03 01:55:29;;;;;;;24.63;11.30;;;;;;;;;;7363115;19;20823;-67
2023/10/03 01:57:54;;;;;;;27.33;12.18;;;;;;;;;;7363795;19;20378;-67
2023/10/03 02:00:26;;;;;;;25.35;11.52;;;;;;;;;;7386972;19;20320;-67
2023/10/03 02:02:56;;;;;;;21.95;11.05;;;;;;;;;;7363707;19;20018;-68
2023/10/03 02:05:24;;;;;;;23.80;10.95;;;;;;;;;;7366041;19;20496;-66
2023/10/03 02:08:04;;;;;;;22.23;11.20;;;;;;;;;;7366064;19;20694;-67
2023/10/03 02:10:32;;;;;;;23.30;12.43;;;;;;;;;;7366172;19;20105;-66
2023/10/03 02:12:58;;;;;;;25.45;11.43;;;;;;;;;;7363919;19;20006;-68
2023/10/03 02:15:24;;;;;;;22.25;10.82;;;;;;;;;;7387118;19;20005;-68
2023/10/03 02:17:53;;;;;;;26.83;11.07;;;;;;;;;;7365060;19;20014;-67
2023/10/03 02:20:20;;;;;;;26.48;12.25;;;;;;;;;;7365331;19;20002;-67
2023/10/03 02:22:54;;;;;;;23.02;11.25;;;;;;;;;;7364417;19;20003;-68
2023/10/03 02:25:30;;;;;;;21.63;10.20;;;;;;;;;;7364798;19;20069;-67
2023/10/03 02:27:56;;;;;;;26.05;11.30;;;;;;;;;;7364344;19;20524;-67
2023/10/03 02:30:23;;;;;;;25.67;11.52;;;;;;;;;;7387190;19;20003;-68
2023/10/03 02:32:57;;;;;;;26.48;11.98;;;;;;;;;;7361160;19;20010;-66
2023/10/03 02:35:25;;;;;;;23.90;12.30;;;;;;;;;;7364322;19;20739;-67
2023/10/03 02:37:52;;;;;;;24.75;10.35;;;;;;;;;;7365414;19;20527;-67
2023/10/03 02:40:22;;;;;;;25.85;12.00;;;;;;;;;;7364832;19;20010;-68
2023/10/03 02:42:51;;;;;;;28.70;12.55;;;;;;;;;;7363304;19;20023;-67
2023/10/03 02:45:22;;;;;;;27.05;11.68;;;;;;;;;;7386432;19;20007;-67
2023/10/03 02:47:48;;;;;;;23.30;11.18;;;;;;;;;;7365151;19;20034;-67
2023/10/03 02:50:14;;;;;;;25.83;11.98;;;;;;;;;;7364518;19;20014;-67
2023/10/03 02:52:40;;;;;;;26.80;11.60;;;;;;;;;;7363085;19;20500;-67
2023/10/03 02:55:12;;;;;;;25.80;11.93;;;;;;;;;;7365084;19;20011;-67
2023/10/03 02:57:38;;;;;;;26.13;12.23;;;;;;;;;;7370586;19;20483;-68
2023/10/03 03:00:12;;;;;;;25.05;11.85;;;;;;;;;;7393716;19;20028;-67
2023/10/03 03:02:41;;;;;;;26.63;11.32;;;;;;;;;;7369601;19;20010;-70
2023/10/03 03:05:15;;;;;;;23.60;11.65;;;;;;;;;;7371723;19;20027;-67
2023/10/03 03:07:41;;;;;;;28.08;12.73;;;;;;;;;;7370667;19;20031;-66
2023/10/03 03:10:08;;;;;;;25.92;11.35;;;;;;;;;;7370781;19;20086;-68
2023/10/03 03:12:35;;;;;;;22.92;10.98;;;;;;;;;;7380005;19;20536;-68
2023/10/03 03:15:01;;;;;;;30.42;13.18;;;;;;;;;;7393241;19;20006;-67
2023/10/03 03:17:26;;;;;;;22.58;11.98;;;;;;;;;;7370282;19;20009;-66
2023/10/03 03:19:54;;;;;;;25.25;12.50;;;;;;;;;;7371096;19;20024;-67
2023/10/03 03:22:21;;;;;;;26.05;12.05;;;;;;;;;;7369448;19;20010;-66
2023/10/03 03:24:51;;;;;;;28.73;11.77;;;;;;;;;;7369699;19;20021;-67
2023/10/03 03:27:17;;;;;;;28.75;12.48;;;;;;;;;;7392683;19;20131;-67
2023/10/03 03:30:09;;;;;;;25.73;11.35;;;;;;;;;;7370427;19;20444;-67
2023/10/03 03:32:28;;;;;;;20.35;10.48;;;;;;;;;;7367984;19;20029;-67
2023/10/03 03:34:53;;;;;;;26.55;10.45;;;;;;;;;;7370448;19;19998;-67
2023/10/03 03:37:22;;;;;;;23.48;11.38;;;;;;;;;;7368884;19;20006;-68
2023/10/03 03:39:54;;;;;;;23.95;11.02;;;;;;;;;;7370454;19;20040;-67
2023/10/03 03:42:22;;;;;;;24.55;11.73;;;;;;;;;;7389620;19;20023;-67
2023/10/03 03:44:49;;;;;;;20.50;10.57;;;;;;;;;;7369572;19;20031;-68
2023/10/03 03:47:14;;;;;;;20.50;9.88;;;;;;;;;;7370459;19;20010;-68
2023/10/03 03:49:40;;;;;;;22.67;10.45;;;;;;;;;;7370620;19;20006;-67
2023/10/03 03:52:06;;;;;;;20.48;9.95;;;;;;;;;;7369563;19;20073;-68
2023/10/03 03:54:33;;;;;;;23.25;10.65;;;;;;;;;;7391168;19;20030;-65
2023/10/03 03:56:58;;;;;;;22.92;10.88;;;;;;;;;;7371010;19;20017;-67
2023/10/03 03:59:24;;;;;;;25.20;10.63;;;;;;;;;;7371781;19;20464;-67
2023/10/03 04:01:50;;;;;;;19.48;9.68;;;;;;;;;;7367731;19;20020;-68
2023/10/03 04:04:16;;;;;;;20.80;9.60;;;;;;;;;;7383787;19;20014;-66
2023/10/03 04:06:43;;;;;;;23.42;10.73;;;;;;;;;;7377895;19;20041;-68
2023/10/03 04:09:09;;;;;;;22.38;10.98;;;;;;;;;;7397683;19;20015;-67
2023/10/03 04:11:35;;;;;;;22.60;10.75;;;;;;;;;;7369728;19;20007;-68
2023/10/03 04:14:01;;;;;;;23.00;10.75;;;;;;;;;;7368001;19;20400;-67
2023/10/03 04:16:30;;;;;;;19.50;9.45;;;;;;;;;;7369067;19;20091;-68
2023/10/03 04:18:55;;;;;;;21.23;9.90;;;;;;;;;;7368921;19;20341;-67
2023/10/03 04:21:21;;;;;;;22.02;10.20;;;;;;;;;;7389972;19;19990;-67
2023/10/03 04:23:48;;;;;;;22.38;10.77;;;;;;;;;;7366777;19;20010;-67
2023/10/03 04:26:14;;;;;;;20.63;10.40;;;;;;;;;;7367688;19;20010;-69
2023/10/03 04:28:39;;;;;;;23.75;10.98;;;;;;;;;;7367069;19;20023;-67
2023/10/03 04:31:05;;;;;;;27.35;11.27;;;;;;;;;;7368102;19;20358;-67
2023/10/03 04:33:30;;;;;;;20.38;10.50;;;;;;;;;;7387335;19;20062;-68
2023/10/03 04:35:57;;;;;;;26.98;11.48;;;;;;;;;;7367696;19;20543;-67
2023/10/03 04:38:22;;;;;;;24.83;10.65;;;;;;;;;;7368009;19;20010;-68
2023/10/03 04:40:48;;;;;;;26.58;11.38;;;;;;;;;;7368081;19;20006;-68
2023/10/03 04:43:14;;;;;;;24.33;10.93;;;;;;;;;;7360964;19;20017;-68
2023/10/03 04:45:40;;;;;;;25.73;10.35;;;;;;;;;;7367100;19;20747;-68
2023/10/03 04:48:07;;;;;;;21.42;9.85;;;;;;;;;;7389943;19;20111;-66
2023/10/03 04:50:35;;;;;;;22.17;10.23;;;;;;;;;;7368196;19;20469;-67
2023/10/03 04:53:02;;;;;;;20.73;9.80;;;;;;;;;;7366910;19;20107;-67
2023/10/03 04:55:27;;;;;;;20.40;10.00;;;;;;;;;;7367816;19;20535;-67
2023/10/03 04:57:53;;;;;;;24.63;10.95;;;;;;;;;;7367040;19;20020;-67
2023/10/03 05:00:22;;;;;;;20.85;9.75;;;;;;;;;;7389580;19;20472;-68
2023/10/03 05:02:52;;;;;;;26.98;10.88;;;;;;;;;;7366343;19;20010;-67
2023/10/03 05:05:20;;;;;;;20.73;9.00;;;;;;;;;;7368021;19;20007;-67
2023/10/03 05:07:52;;;;;;;22.33;10.75;;;;;;;;;;7368112;19;20600;-68
2023/10/03 05:10:18;;;;;;;21.80;11.10;;;;;;;;;;7367958;19;20027;-66
2023/10/03 05:12:46;;;;;;;23.23;9.70;;;;;;;;;;7365392;19;20014;-68
2023/10/03 05:15:14;;;;;;;24.98;10.70;;;;;;;;;;7389852;19;20368;-68
2023/10/03 05:17:40;;;;;;;23.25;10.98;;;;;;;;;;7365130;19;20020;-68
2023/10/03 05:20:06;;;;;;;20.92;10.18;;;;;;;;;;7367736;19;20010;-67
2023/10/03 05:22:32;;;;;;;20.88;9.55;;;;;;;;;;7366190;19;19998;-67
2023/10/03 05:25:03;;;;;;;21.35;9.35;;;;;;;;;;7365394;19;20086;-67
2023/10/03 05:27:29;;;;;;;21.38;9.50;;;;;;;;;;7393829;19;19994;-68
2023/10/03 05:30:08;;;;;;;19.77;9.70;;;;;;;;;;7377051;19;20349;-67
2023/10/03 05:32:35;;;;;;;21.73;10.18;;;;;;;;;;7367321;19;20003;-67
2023/10/03 05:35:01;;;;;;;20.80;9.70;;;;;;;;;;7370680;19;20353;-68
2023/10/03 05:37:27;;;;;;;25.50;10.63;;;;;;;;;;7366163;19;20087;-67
2023/10/03 05:39:53;;;;;;;24.63;9.50;;;;;;;;;;7366420;19;20490;-68
2023/10/03 05:42:18;;;;;;;24.38;10.98;;;;;;;;;;7386756;19;20003;-67
2023/10/03 05:44:44;;;;;;;20.70;10.05;;;;;;;;;;7367237;19;20008;-67
2023/10/03 05:47:10;;;;;;;21.10;10.02;;;;;;;;;;7367207;19;20006;-67
2023/10/03 05:49:37;;;;;;;21.63;10.27;;;;;;;;;;7367320;19;20005;-67
2023/10/03 05:52:02;;;;;;;23.33;10.02;;;;;;;;;;7365900;19;20030;-66
2023/10/03 05:54:30;;;;;;;22.02;9.73;;;;;;;;;;7387683;19;19994;-68
2023/10/03 05:56:55;;;;;;;18.75;9.63;;;;;;;;;;7364914;19;20516;-68
2023/10/03 05:59:21;;;;;;;23.35;9.63;;;;;;;;;;7366329;19;20031;-67
2023/10/03 06:01:48;;;;;;;23.02;10.48;;;;;;;;;;7365403;19;20414;-69
2023/10/03 06:04:13;;;;;;;18.65;8.50;;;;;;;;;;7366110;19;20064;-68
2023/10/03 06:06:39;;;;;;;18.02;8.90;;;;;;;;;;7365358;19;20007;-68
2023/10/03 06:09:04;;;;;;;19.02;9.00;;;;;;;;;;7387907;19;19998;-66
2023/10/03 06:11:30;;;;;;;13.55;7.90;;;;;;;;;;7366226;19;20507;-67
2023/10/03 06:13:57;;;;;;;19.23;8.70;;;;;;;;;;7364955;19;20006;-67
2023/10/03 06:16:23;;;;;;;15.85;9.00;;;;;;;;;;7366473;19;20010;-68
2023/10/03 06:18:50;;;;;;;20.67;9.25;;;;;;;;;;7366200;19;20002;-66
2023/10/03 06:21:16;;;;;;;20.25;10.05;;;;;;;;;;7388672;19;20405;-68
2023/10/03 06:23:41;;;;;;;17.27;9.20;;;;;;;;;;7364085;19;20014;-67
2023/10/03 06:26:06;;;;;;;20.85;10.13;;;;;;;;;;7365882;19;20006;-66
2023/10/03 06:28:32;;;;;;;21.10;10.27;;;;;;;;;;7365201;19;19998;-68
2023/10/03 06:30:57;;;;;;;19.48;10.07;;;;;;;;;;7368919;19;20010;-68
2023/10/03 06:33:22;;;;;;;20.13;9.38;;;;;;;;;;7373773;19;20113;-68
2023/10/03 06:35:50;;;;;;;20.02;9.90;;;;;;;;;;7370229;19;20712;-68
2023/10/03 06:38:16;;;;;;;18.40;9.73;;;;;;;;;;7373691;19;20049;-67
2023/10/03 06:40:42;;;;;;;19.83;9.50;;;;;;;;;;7378972;19;20406;-68
2023/10/03 06:43:07;;;;;;;21.63;9.38;;;;;;;;;;7372010;19;20007;-68
2023/10/03 06:45:33;;;;;;;20.05;10.15;;;;;;;;;;7390063;19;20364;-68
2023/10/03 06:48:03;;;;;;;22.83;10.50;;;;;;;;;;7377658;19;20003;-68
2023/10/03 06:50:29;;;;;;;19.60;9.15;;;;;;;;;;7372360;19;20003;-66
2023/10/03 06:52:55;;;;;;;21.73;9.82;;;;;;;;;;7368549;19;20003;-68
2023/10/03 06:55:20;;;;;;;18.85;8.70;;;;;;;;;;7372007;19;20011;-67
2023/10/03 06:57:45;;;;;;;17.38;8.55;;;;;;;;;;7371777;19;19998;-68
2023/10/03 07:00:13;;;;;;;17.17;8.48;;;;;;;;;;7395184;19;20014;-68
2023/10/03 07:02:39;;;;;;;17.02;8.82;;;;;;;;;;7373280;19;20384;-68
2023/10/03 07:05:05;;;;;;;15.90;8.05;;;;;;;;;;7377033;19;20324;-66
2023/10/03 07:07:32;;;;;;;17.40;7.68;;;;;;;;;;7374980;19;20107;-69
2023/10/03 07:09:57;;;;;;;14.52;8.15;;;;;;;;;;7372022;19;20014;-67
2023/10/03 07:12:24;;;;;;;15.30;7.18;;;;;;;;;;7391480;19;20014;-69
2023/10/03 07:14:50;;;;;;;16.50;8.15;;;;;;;;;;7371335;19;20003;-69
2023/10/03 07:17:16;;;;;;;17.25;8.63;;;;;;;;;;7370872;19;20080;-70
2023/10/03 07:19:43;;;;;;;16.75;9.00;;;;;;;;;;7371155;19;20035;-67
2023/10/03 07:22:08;;;;;;;14.95;8.20;;;;;;;;;;7369809;19;20006;-71
2023/10/03 07:24:34;;;;;;;15.40;7.70;;;;;;;;;;7371616;19;20015;-68
2023/10/03 07:27:03;;;;;;;18.50;8.50;;;;;;;;;;7389518;19;20042;-68
2023/10/03 07:29:29;;;;;;;15.05;7.93;;;;;;;;;;7370334;19;20023;-68
2023/10/03 07:31:54;;;;;;;17.08;8.27;;;;;;;;;;7370212;19;20010;-68
2023/10/03 07:34:21;;;;;;;16.02;8.55;;;;;;;;;;7369471;19;20072;-68
2023/10/03 07:36:46;;;;;;;16.45;7.95;;;;;;;;;;7371984;19;20026;-68
2023/10/03 07:39:13;;;;;;;15.80;8.20;;;;;;;;;;7393831;19;19998;-70
2023/10/03 07:41:38;;;;;;;20.40;9.55;;;;;;;;;;7369483;19;20006;-69
2023/10/03 07:44:04;;;;;;;18.85;8.93;;;;;;;;;;7369373;19;20010;-70
2023/10/03 07:46:30;;;;;;;17.02;9.43;;;;;;;;;;7371241;19;19999;-70
2023/10/03 07:48:56;;;;;;;22.23;10.43;;;;;;;;;;7370804;19;20010;-69
2023/10/03 07:51:27;;;;;;;19.67;10.50;;;;;;;;;;7392022;19;20010;-68
2023/10/03 07:53:52;;;;;;;22.55;11.43;;;;;;;;;;7370067;19;20112;-68
2023/10/03 07:56:30;;;;;;;21.50;12.02;;;;;;;;;;7370026;19;20010;-68
2023/10/03 07:58:57;;;;;;;18.88;9.73;;;;;;;;;;7379209;19;20019;-68
2023/10/03 08:01:26;;;;;;;22.38;9.88;;;;;;;;;;7382865;19;20006;-68
2023/10/03 08:03:56;;;;;;;21.20;9.85;;;;;;;;;;7377378;19;20011;-69
2023/10/03 08:06:23;;;;;;;23.97;11.80;;;;;;;;;;7392493;19;20002;-69
2023/10/03 08:08:52;;;;;;;19.35;10.20;;;;;;;;;;7369403;19;20006;-69
2023/10/03 08:11:21;;;;;;;20.15;10.50;;;;;;;;;;7369837;19;20006;-69
2023/10/03 08:13:49;;;;;;;21.15;9.93;;;;;;;;;;7368053;19;20019;-69
2023/10/03 08:16:15;;;;;;;21.42;10.82;;;;;;;;;;7369328;19;20021;-68
2023/10/03 08:18:46;;;;;;;18.08;9.55;;;;;;;;;;7370260;19;20009;-68
2023/10/03 08:21:12;;;;;;;21.92;10.10;;;;;;;;;;7391079;19;20006;-69
2023/10/03 08:23:37;;;;;;;20.92;9.57;;;;;;;;;;7367016;19;20010;-69
2023/10/03 08:26:03;;;;;;;21.48;10.93;;;;;;;;;;7369931;19;20013;-69
2023/10/03 08:28:31;;;;;;;25.77;11.43;;;;;;;;;;7369440;19;20011;-69
2023/10/03 08:30:57;;;;;;;21.20;9.70;;;;;;;;;;7368944;19;19999;-69
2023/10/03 08:33:22;;;;;;;19.80;10.20;;;;;;;;;;7388686;19;20481;-69
2023/10/03 08:35:48;;;;;;;25.60;10.23;;;;;;;;;;7368918;19;20013;-69
2023/10/03 08:38:14;;;;;;;18.63;9.35;;;;;;;;;;7367461;19;20070;-69
2023/10/03 08:40:42;;;;;;;18.92;9.80;;;;;;;;;;7369911;19;20038;-69
2023/10/03 08:43:09;;;;;;;20.40;10.13;;;;;;;;;;7366267;19;20010;-68
2023/10/03 08:45:41;;;;;;;18.55;9.25;;;;;;;;;;7368522;19;20069;-69
2023/10/03 08:48:07;;;;;;;17.65;9.18;;;;;;;;;;7390392;19;20022;-68
2023/10/03 08:50:46;;;;;;;20.70;9.02;;;;;;;;;;7368896;19;20607;-68
2023/10/03 08:53:13;;;;;;;21.90;9.10;;;;;;;;;;7365543;19;20018;-69
2023/10/03 08:55:43;;;;;;;15.90;8.10;;;;;;;;;;7369155;19;20038;-69
2023/10/03 08:58:13;;;;;;;15.25;7.88;;;;;;;;;;7368512;19;20014;-69
2023/10/03 09:00:46;;;;;;;19.45;8.32;;;;;;;;;;7369080;19;20752;-69
2023/10/03 09:03:13;;;;;;;10.80;5.40;;;;;;;;;;7389153;19;19995;-70
2023/10/03 09:05:40;;;;;;;9.48;5.25;;;;;;;;;;7368833;19;20014;-69
2023/10/03 09:08:08;;;;;;;9.93;6.15;;;;;;;;;;7368594;19;20820;-69
2023/10/03 09:10:34;;;;;;;13.05;5.03;;;;;;;;;;7369434;19;20491;-68
2023/10/03 09:13:07;;;;;;;8.75;4.93;;;;;;;;;;7365242;19;20094;-69
2023/10/03 09:15:42;;;;;;;9.63;4.38;;;;;;;;;;7387621;19;19999;-69
2023/10/03 09:18:10;;;;;;;9.20;4.00;;;;;;;;;;7390570;19;20002;-68
2023/10/03 09:20:36;;;;;;;8.50;4.10;;;;;;;;;;7367893;19;20006;-69
2023/10/03 09:23:08;;;;;;;10.35;5.40;;;;;;;;;;7367011;19;20011;-68
2023/10/03 09:25:41;;;;;;;8.23;4.45;;;;;;;;;;7369609;19;19999;-68
2023/10/03 09:28:09;;;;;;;11.82;5.13;;;;;;;;;;7368887;19;20002;-70
2023/10/03 09:30:38;;;;;;;10.23;4.72;;;;;;;;;;7368877;19;19998;-70
2023/10/03 09:33:05;;;;;;;9.18;4.60;;;;;;;;;;7387160;19;20009;-70
2023/10/03 09:35:31;;;;;;;8.10;4.20;;;;;;;;;;7368258;19;20014;-69
2023/10/03 09:37:57;;;;;;;10.18;5.05;;;;;;;;;;7366814;19;20443;-69
2023/10/03 09:40:22;;;;;;;11.85;4.78;;;;;;;;;;7367870;19;20093;-69
2023/10/03 09:42:49;;;;;;;8.82;4.47;;;;;;;;;;7364063;19;20024;-69
2023/10/03 09:45:24;;;;;;;10.32;4.95;;;;;;;;;;7388151;19;20019;-67
2023/10/03 09:47:58;;;;;;;11.27;4.47;;;;;;;;;;7367150;19;20006;-70
2023/10/03 09:50:26;;;;;;;8.13;4.38;;;;;;;;;;7368064;19;20003;-68
2023/10/03 09:52:52;;;;;;;8.88;4.15;;;;;;;;;;7365287;19;20469;-68
2023/10/03 09:55:21;;;;;;;7.43;4.28;;;;;;;;;;7352498;19;20023;-64
2023/10/03 09:57:52;;;;;;;14.15;4.57;;;;;;;;;;7363255;19;20006;-64
2023/10/03 10:00:50;;;;;;;11.60;4.60;;;;;;;;;;7384207;19;20002;-65
2023/10/03 10:03:26;;;;;;;7.13;4.32;;;;;;;;;;7360775;19;20555;-65
2023/10/03 10:06:12;;;;;;;8.10;4.40;;;;;;;;;;7362630;19;20355;-65
2023/10/03 10:08:47;;;;;;;8.20;4.15;;;;;;;;;;7361926;19;20002;-64
2023/10/03 10:11:13;;;;;;;10.63;5.05;;;;;;;;;;7362802;19;20010;-64
2023/10/03 10:13:59;;;;;;;9.23;4.80;;;;;;;;;;7361425;19;20281;-65
2023/10/03 10:16:28;;;;;;;8.20;4.47;;;;;;;;;;7363501;19;20009;-65
2023/10/03 10:18:54;;;;;;;8.35;4.57;;;;;;;;;;7365727;19;20165;-64
2023/10/03 10:21:19;;;;;;;11.27;3.97;;;;;;;;;;7384464;19;20379;-65
2023/10/03 10:24:11;;;;;;;11.80;4.63;;;;;;;;;;7361118;19;20002;-65
2023/10/03 10:26:37;;;;;;;7.45;4.15;;;;;;;;;;7363302;19;20247;-65
2023/10/03 10:29:09;;;;;;;9.07;4.70;;;;;;;;;;7360199;19;20334;-67
2023/10/03 10:31:39;;;;;;;8.88;4.85;;;;;;;;;;7364333;19;20003;-65
2023/10/03 10:34:20;;;;;;;8.38;4.55;;;;;;;;;;7362305;19;20035;-65
2023/10/03 10:37:09;;;;;;;8.13;4.38;;;;;;;;;;7363043;19;20002;-66
2023/10/03 10:40:09;;;;;;;13.98;5.10;;;;;;;;;;7362160;19;20010;-65
2023/10/03 10:43:11;;;;;;;14.93;4.55;;;;;;;;;;7359709;19;20006;-65
2023/10/03 10:45:39;;;;;;;7.40;3.75;;;;;;;;;;7364365;19;20002;-64
2023/10/03 10:48:06;;;;;;;6.82;4.55;;;;;;;;;;7383676;19;20074;-64
2023/10/03 10:51:02;;;;;;;9.82;4.55;;;;;;;;;;7363851;19;20018;-65
2023/10/03 10:53:56;;;;;;;7.47;3.80;;;;;;;;;;7362345;19;20010;-64
2023/10/03 10:56:27;;;;;;;8.35;4.30;;;;;;;;;;7360229;19;20010;-65
2023/10/03 10:58:53;;;;;;;9.20;4.40;;;;;;;;;;7365041;19;20006;-65
2023/10/03 11:01:20;;;;;;;8.77;3.75;;;;;;;;;;7364017;19;20477;-65
2023/10/03 11:03:47;;;;;;;9.18;4.50;;;;;;;;;;7362016;19;20003;-64
2023/10/03 11:06:19;;;;;;;6.68;3.42;;;;;;;;;;7385690;19;20074;-64
2023/10/03 11:08:48;;;;;;;10.00;4.53;;;;;;;;;;7361880;19;20768;-66
2023/10/03 11:11:14;;;;;;;9.00;3.95;;;;;;;;;;7362115;19;20038;-64
2023/10/03 11:13:50;;;;;;;9.23;4.43;;;;;;;;;;7361242;19;20014;-65
2023/10/03 11:16:26;;;;;;;7.05;3.92;;;;;;;;;;7362128;19;20021;-65
2023/10/03 11:18:54;;;;;;;10.27;3.90;;;;;;;;;;7366414;19;20014;-64
2023/10/03 11:21:21;;;;;;;8.95;3.97;;;;;;;;;;7390867;19;20094;-66
2023/10/03 11:24:13;;;;;;;12.52;4.30;;;;;;;;;;7365110;19;20015;-65
2023/10/03 11:26:46;;;;;;;7.93;3.95;;;;;;;;;;7369259;19;20027;-65
2023/10/03 11:29:14;;;;;;;12.60;4.43;;;;;;;;;;7367929;19;20509;-65
2023/10/03 11:31:41;;;;;;;13.80;7.93;;;;;;;;;;7367594;19;20360;-64
2023/10/03 11:34:06;;;;;;;8.02;3.63;;;;;;;;;;7369568;19;20420;-65
2023/10/03 11:36:45;;;;;;;11.82;4.70;;;;;;;;;;7392160;19;20002;-64
2023/10/03 11:39:18;;;;;;;11.63;4.38;;;;;;;;;;7369086;19;20014;-63
2023/10/03 11:41:44;;;;;;;8.55;4.40;;;;;;;;;;7369461;19;20081;-64
2023/10/03 11:44:17;;;;;;;7.25;3.45;;;;;;;;;;7368058;19;20010;-63
2023/10/03 11:46:44;;;;;;;8.75;3.35;;;;;;;;;;7370542;19;20006;-63
2023/10/03 11:49:09;;;;;;;8.65;4.20;;;;;;;;;;7369253;19;20007;-63
2023/10/03 11:51:38;;;;;;;11.55;4.20;;;;;;;;;;7369685;19;20366;-65
2023/10/03 11:54:08;;;;;;;5.78;3.50;;;;;;;;;;7388387;19;20009;-64
2023/10/03 11:56:41;;;;;;;6.20;3.83;;;;;;;;;;7370353;19;20013;-65
2023/10/03 11:59:06;;;;;;;6.47;3.63;;;;;;;;;;7370492;19;20387;-65
2023/10/03 12:01:33;;;;;;;9.75;4.30;;;;;;;;;;7370477;19;20050;-64
2023/10/03 12:03:58;;;;;;;9.05;4.25;;;;;;;;;;7366984;19;20011;-64
2023/10/03 12:06:24;;;;;;;7.95;3.97;;;;;;;;;;7390890;19;20003;-63
2023/10/03 12:08:49;;;;;;;9.90;4.40;;;;;;;;;;7366816;19;20695;-63
2023/10/03 12:11:16;;;;;;;13.85;7.43;;;;;;;;;;7368689;19;20021;-65
2023/10/03 12:13:41;;;;;;;10.20;4.15;;;;;;;;;;7366600;19;20002;-64
2023/10/03 12:16:06;;;;;;;8.07;3.58;;;;;;;;;;7368930;19;20015;-64
2023/10/03 12:18:32;;;;;;;6.80;4.00;;;;;;;;;;7391645;19;20540;-64
2023/10/03 12:20:57;;;;;;;5.75;3.60;;;;;;;;;;7369149;19;20045;-63
2023/10/03 12:23:22;;;;;;;10.80;3.58;;;;;;;;;;7367515;19;19998;-64
2023/10/03 12:25:48;;;;;;;16.20;3.00;;;;;;;;;;7366142;19;21715;-68
2023/10/03 12:28:16;;;;;;;7.90;2.80;;;;;;;;;;7367875;19;20015;-69
2023/10/03 12:30:42;;;;;;;5.00;2.53;;;;;;;;;;7366762;19;20510;-71
2023/10/03 12:33:16;;;;;;;5.55;2.38;;;;;;;;;;7389065;19;19999;-71
2023/10/03 12:35:41;;;;;;;6.30;2.72;;;;;;;;;;7367962;19;19998;-72
2023/10/03 12:38:10;;;;;;;9.45;2.78;;;;;;;;;;7367416;19;20719;-72
2023/10/03 12:40:35;;;;;;;7.10;2.78;;;;;;;;;;7367532;19;20012;-71
2023/10/03 12:43:01;;;;;;;7.38;2.88;;;;;;;;;;7365665;19;20003;-71
2023/10/03 12:45:26;;;;;;;10.57;3.63;;;;;;;;;;7390700;19;20002;-73
2023/10/03 12:47:54;;;;;;;9.27;4.05;;;;;;;;;;7368513;19;20011;-72
2023/10/03 12:50:27;;;;;;;5.22;3.00;;;;;;;;;;7369100;19;20003;-72
2023/10/03 12:52:59;;;;;;;5.53;2.45;;;;;;;;;;7364292;19;20010;-72
2023/10/03 12:55:28;;;;;;;4.82;2.17;;;;;;;;;;7369146;19;20006;-72
2023/10/03 12:57:59;;;;;;;7.65;2.20;;;;;;;;;;7366013;19;20000;-73
2023/10/03 13:00:27;;;;;;;4.85;2.42;;;;;;;;;;7389588;19;19994;-73
2023/10/03 13:02:56;;;;;;;6.45;2.55;;;;;;;;;;7363464;19;20006;-73
2023/10/03 13:05:23;;;;;;;6.28;2.55;;;;;;;;;;7367026;19;20002;-72
2023/10/03 13:07:49;;;;;;;4.75;2.60;;;;;;;;;;7365928;19;20006;-71
2023/10/03 13:10:18;;;;;;;5.60;2.70;;;;;;;;;;7364886;19;20066;-71
2023/10/03 13:12:46;;;;;;;4.25;2.42;;;;;;;;;;7362976;19;20010;-71
2023/10/03 13:15:15;;;;;;;5.85;2.67;;;;;;;;;;7388029;19;19999;-71
2023/10/03 13:17:41;;;;;;;7.78;3.08;;;;;;;;;;7363460;19;20007;-72
2023/10/03 13:20:13;;;;;;;5.15;2.80;;;;;;;;;;7364518;19;20015;-71
2023/10/03 13:22:44;;;;;;;6.07;2.60;;;;;;;;;;7359485;19;20010;-73
2023/10/03 13:25:17;;;;;;;5.13;2.65;;;;;;;;;;7368887;19;20475;-71
2023/10/03 13:27:43;;;;;;;6.07;3.05;;;;;;;;;;7354555;19;20468;-71
2023/10/03 13:30:11;;;;;;;4.28;2.50;;;;;;;;;;7385616;19;20006;-72
2023/10/03 13:32:39;;;;;;;6.25;3.05;;;;;;;;;;7363035;19;20010;-72
2023/10/03 13:35:08;;;;;;;7.45;3.50;;;;;;;;;;7364807;19;20681;-72
2023/10/03 13:37:33;;;;;;;5.65;2.83;;;;;;;;;;7364791;19;20560;-71
2023/10/03 13:39:58;;;;;;;5.18;2.30;;;;;;;;;;7362965;19;20030;-72
2023/10/03 13:42:28;;;;;;;7.32;3.30;;;;;;;;;;7383444;19;20275;-72
2023/10/03 13:44:54;;;;;;;5.28;3.40;;;;;;;;;;7365073;19;20274;-73
2023/10/03 13:47:20;;;;;;;8.27;3.10;;;;;;;;;;7365406;19;20039;-71
2023/10/03 13:49:45;;;;;;;7.35;3.17;;;;;;;;;;7360438;19;20014;-73
2023/10/03 13:52:12;;;;;;;7.40;3.20;;;;;;;;;;7364134;19;20014;-71
2023/10/03 13:54:39;;;;;;;6.72;3.03;;;;;;;;;;7365734;19;20084;-71
2023/10/03 13:57:05;;;;;;;7.43;3.10;;;;;;;;;;7385020;19;20042;-70
2023/10/03 13:59:32;;;;;;;5.25;3.22;;;;;;;;;;7364672;19;20010;-70
2023/10/03 14:01:57;;;;;;;6.72;3.20;;;;;;;;;;7364374;19;20006;-71
2023/10/03 14:04:23;;;;;;;7.38;3.80;;;;;;;;;;7361547;19;20043;-71
2023/10/03 14:06:48;;;;;;;6.22;3.20;;;;;;;;;;7364253;19;20002;-70
2023/10/03 14:09:32;;;;;;;10.55;4.22;;;;;;;;;;7384855;19;20023;-70
2023/10/03 14:12:00;;;;;;;6.25;3.50;;;;;;;;;;7365261;19;20480;-70
2023/10/03 14:14:26;;;;;;;6.53;3.90;;;;;;;;;;7364127;19;20008;-69
2023/10/03 14:17:00;;;;;;;4.78;2.63;;;;;;;;;;7364246;19;20036;-69
2023/10/03 14:19:30;;;;;;;3.70;1.90;;;;;;;;;;7365370;19;20011;-69
2023/10/03 14:21:55;;;;;;;3.58;1.80;;;;;;;;;;7367859;19;20039;-70
2023/10/03 14:24:20;;;;;;;3.28;2.05;;;;;;;;;;7386007;19;20010;-72
2023/10/03 14:26:47;;;;;;;3.95;1.60;;;;;;;;;;7365934;19;20105;-69
2023/10/03 14:29:12;;;;;;;3.63;1.85;;;;;;;;;;7365570;19;20044;-70
2023/10/03 14:31:37;;;;;;;3.95;2.00;;;;;;;;;;7366080;19;20468;-70
2023/10/03 14:34:03;;;;;;;6.82;2.15;;;;;;;;;;7357447;19;20508;-70
2023/10/03 14:36:29;;;;;;;5.13;2.30;;;;;;;;;;7386759;19;20010;-70